createdAt,value
2023-01-18T00:02:19.829Z,13.25
2023-01-18T00:04:48.989Z,13.23
2023-01-18T00:07:18.192Z,10.82
2023-01-18T00:09:47.450Z,14.48
2023-01-18T00:12:16.690Z,16.80
2023-01-18T00:14:45.908Z,11.75
2023-01-18T00:17:15.041Z,14.02
2023-01-18T00:19:45.560Z,13.32
2023-01-18T00:22:14.829Z,14.82
2023-01-18T00:24:43.925Z,13.10
2023-01-18T00:27:13.318Z,14.60
2023-01-18T00:29:42.873Z,15.88
2023-01-18T00:32:34.822Z,15.75
2023-01-18T00:35:07.701Z,15.07
2023-01-18T00:37:36.986Z,16.00
2023-01-18T00:40:07.806Z,17.50
2023-01-18T00:42:55.363Z,16.27
2023-01-18T00:45:24.777Z,13.60
2023-01-18T00:47:54.029Z,16.63
2023-01-18T00:50:24.548Z,16.08
2023-01-18T00:52:57.765Z,15.48
2023-01-18T00:55:27.396Z,14.73
2023-01-18T00:57:56.603Z,13.63
2023-01-18T01:00:29.035Z,14.30
2023-01-18T01:02:59.429Z,15.40
2023-01-18T01:05:56.519Z,12.80
2023-01-18T01:08:25.852Z,14.18
2023-01-18T01:11:05.398Z,13.95
2023-01-18T01:13:52.066Z,12.15
2023-01-18T01:16:40.277Z,16.25
2023-01-18T01:19:26.704Z,13.18
2023-01-18T01:22:14.725Z,15.13
2023-01-18T01:25:01.390Z,13.88
2023-01-18T01:27:30.633Z,14.18
2023-01-18T01:29:59.777Z,14.73
2023-01-18T01:32:28.914Z,14.15
2023-01-18T01:34:58.096Z,14.35
2023-01-18T01:37:28.654Z,14.38
2023-01-18T01:39:57.875Z,14.63
2023-01-18T01:42:27.066Z,15.88
2023-01-18T01:44:56.720Z,14.30
2023-01-18T01:47:44.812Z,14.40
2023-01-18T01:50:22.597Z,13.70
2023-01-18T01:52:53.466Z,13.20
2023-01-18T01:55:26.142Z,13.45
2023-01-18T01:58:00.175Z,16.15
2023-01-18T02:00:29.838Z,14.55
2023-01-18T02:03:01.710Z,13.80
2023-01-18T02:05:33.273Z,11.05
2023-01-18T02:08:04.868Z,13.27
2023-01-18T02:10:34.015Z,13.95
2023-01-18T02:13:03.603Z,13.55
2023-01-18T02:15:39.559Z,12.38
2023-01-18T02:18:17.455Z,12.60
2023-01-18T02:21:20.151Z,12.10
2023-01-18T02:24:33.434Z,13.45
2023-01-18T02:27:14.922Z,11.95
2023-01-18T02:30:00.060Z,13.57
2023-01-18T02:32:44.692Z,10.82
2023-01-18T02:35:16.325Z,12.98
2023-01-18T02:37:52.870Z,13.32
2023-01-18T02:40:29.577Z,12.88
2023-01-18T02:43:19.497Z,13.85
2023-01-18T02:46:09.277Z,12.40
2023-01-18T02:48:42.534Z,14.43
2023-01-18T02:51:12.558Z,12.10
2023-01-18T02:53:44.678Z,12.93
2023-01-18T02:56:18.062Z,11.52
2023-01-18T02:58:50.879Z,11.50
2023-01-18T03:01:27.099Z,11.98
2023-01-18T03:04:00.366Z,11.05
2023-01-18T03:06:31.222Z,10.02
2023-01-18T03:09:01.586Z,10.93
2023-01-18T03:11:40.711Z,13.23
2023-01-18T03:14:18.794Z,12.00
2023-01-18T03:17:01.102Z,11.23
2023-01-18T03:19:57.803Z,10.40
2023-01-18T03:22:42.862Z,10.88
2023-01-18T03:25:17.560Z,11.30
2023-01-18T03:28:06.999Z,13.43
2023-01-18T03:30:55.633Z,10.60
2023-01-18T03:33:44.767Z,12.68
2023-01-18T03:36:19.086Z,11.55
2023-01-18T03:38:51.478Z,11.50
2023-01-18T03:41:23.403Z,11.18
2023-01-18T03:43:55.981Z,13.20
2023-01-18T03:46:31.895Z,11.43
2023-01-18T03:49:02.549Z,12.23
2023-01-18T03:51:47.916Z,11.10
2023-01-18T03:54:22.235Z,11.48
2023-01-18T03:56:54.792Z,10.93
2023-01-18T03:59:24.418Z,11.00
2023-01-18T04:06:13.891Z,10.63
2023-01-18T04:08:43.123Z,10.50
2023-01-18T04:11:12.271Z,12.45
2023-01-18T04:13:41.456Z,10.90
2023-01-18T04:16:10.958Z,10.75
2023-01-18T04:18:40.200Z,10.90
2023-01-18T04:21:09.323Z,9.70
2023-01-18T04:23:39.990Z,10.52
2023-01-18T04:26:09.050Z,11.32
2023-01-18T04:28:38.211Z,9.98
2023-01-18T04:31:07.819Z,11.80
2023-01-18T04:33:37.056Z,10.13
2023-01-18T04:36:06.528Z,9.65
2023-01-18T04:38:35.752Z,12.77
2023-01-18T04:41:07.258Z,10.00
2023-01-18T04:43:36.791Z,9.52
2023-01-18T04:46:06.317Z,10.35
2023-01-18T04:48:35.462Z,9.82
2023-01-18T04:51:04.687Z,9.52
2023-01-18T04:53:36.031Z,10.98
2023-01-18T04:56:06.940Z,8.82
2023-01-18T04:58:36.177Z,10.70
2023-01-18T05:01:06.617Z,9.05
2023-01-18T05:03:38.420Z,10.90
2023-01-18T05:06:08.920Z,10.85
2023-01-18T05:08:41.093Z,11.90
2023-01-18T05:11:13.684Z,10.93
2023-01-18T05:13:43.699Z,9.57
2023-01-18T05:16:16.993Z,11.13
2023-01-18T05:18:46.528Z,11.30
2023-01-18T05:21:16.491Z,11.30
2023-01-18T05:23:45.676Z,9.30
2023-01-18T05:26:19.329Z,10.45
2023-01-18T05:28:48.646Z,8.95
2023-01-18T05:31:21.350Z,8.63
2023-01-18T05:33:50.647Z,9.25
2023-01-18T05:36:20.066Z,7.90
2023-01-18T05:38:49.159Z,10.55
2023-01-18T05:41:21.121Z,19.13
2023-01-18T05:43:50.257Z,8.73
2023-01-18T05:46:19.403Z,10.40
2023-01-18T05:48:48.512Z,9.65
2023-01-18T05:51:17.796Z,8.70
2023-01-18T05:53:46.918Z,8.48
2023-01-18T05:56:16.156Z,10.82
2023-01-18T05:58:46.745Z,7.35
2023-01-18T06:01:16.073Z,7.05
2023-01-18T06:03:45.477Z,7.95
2023-01-18T06:06:16.583Z,6.78
2023-01-18T06:08:45.777Z,7.05
2023-01-18T06:11:15.019Z,6.28
2023-01-18T06:13:45.655Z,5.50
2023-01-18T06:16:14.901Z,7.05
2023-01-18T06:18:44.107Z,7.72
2023-01-18T06:21:13.465Z,6.90
2023-01-18T06:23:42.914Z,7.95
2023-01-18T06:26:12.212Z,6.50
2023-01-18T06:28:41.395Z,5.35
2023-01-18T06:31:12.081Z,6.68
2023-01-18T06:33:41.233Z,6.78
2023-01-18T06:36:10.831Z,7.78
2023-01-18T06:38:39.988Z,8.23
2023-01-18T06:41:09.433Z,7.85
2023-01-18T06:43:38.752Z,8.25
2023-01-18T06:46:09.779Z,7.10
2023-01-18T06:48:40.449Z,6.05
2023-01-18T06:51:09.675Z,6.35
2023-01-18T06:53:38.873Z,6.40
2023-01-18T06:56:10.569Z,6.43
2023-01-18T06:58:39.956Z,6.43
2023-01-18T07:01:09.769Z,5.10
2023-01-18T07:03:40.525Z,6.00
2023-01-18T07:06:09.661Z,6.32
2023-01-18T07:08:40.355Z,6.85
2023-01-18T07:11:11.637Z,7.00
2023-01-18T07:13:43.670Z,6.78
2023-01-18T07:16:18.175Z,7.97
2023-01-18T07:18:50.377Z,5.72
2023-01-18T07:21:22.994Z,5.57
2023-01-18T07:23:52.266Z,6.70
2023-01-18T07:26:21.514Z,9.75
2023-01-18T07:28:50.717Z,42.33
2023-01-18T07:31:21.076Z,32.00
2023-01-18T07:33:52.409Z,11.35
2023-01-18T07:36:22.322Z,8.98
2023-01-18T07:38:52.194Z,6.05
2023-01-18T07:41:23.194Z,5.53
2023-01-18T07:43:54.136Z,6.75
2023-01-18T07:46:26.022Z,7.63
2023-01-18T07:48:56.707Z,6.97
2023-01-18T07:51:25.872Z,5.95
2023-01-18T07:53:56.152Z,6.20
2023-01-18T07:56:26.142Z,5.63
2023-01-18T07:58:55.749Z,4.43
2023-01-18T08:01:25.591Z,5.53
2023-01-18T08:03:56.246Z,6.90
2023-01-18T08:06:27.310Z,5.00
2023-01-18T08:08:57.403Z,6.22
2023-01-18T08:11:26.968Z,5.85
2023-01-18T08:13:56.093Z,4.60
2023-01-18T08:16:26.973Z,6.40
2023-01-18T08:18:57.505Z,5.47
2023-01-18T08:21:26.825Z,4.80
2023-01-18T08:23:56.128Z,6.38
2023-01-18T08:26:25.860Z,6.35
2023-01-18T08:28:56.408Z,7.57
2023-01-18T08:31:25.660Z,7.43
2023-01-18T08:33:56.324Z,6.32
2023-01-18T08:36:26.818Z,6.43
2023-01-18T08:38:58.085Z,5.70
2023-01-18T08:41:30.550Z,6.78
2023-01-18T08:44:00.876Z,7.75
2023-01-18T08:46:30.276Z,6.22
2023-01-18T08:49:00.960Z,6.40
2023-01-18T08:51:30.162Z,5.43
2023-01-18T08:53:59.995Z,5.70
2023-01-18T08:56:29.653Z,5.30
2023-01-18T08:58:58.860Z,5.88
2023-01-18T09:01:28.383Z,7.22
2023-01-18T09:03:59.584Z,5.25
2023-01-18T09:06:32.365Z,5.18
2023-01-18T09:09:01.801Z,5.55
2023-01-18T09:11:31.130Z,6.85
2023-01-18T09:14:02.290Z,6.22
2023-01-18T09:16:32.488Z,5.45
2023-01-18T09:19:06.472Z,5.57
2023-01-18T09:21:38.068Z,5.78
2023-01-18T09:24:08.375Z,5.05
2023-01-18T09:26:37.675Z,5.60
2023-01-18T09:29:06.803Z,6.10
2023-01-18T09:31:36.400Z,5.18
2023-01-18T09:34:18.983Z,5.30
2023-01-18T09:36:51.226Z,5.05
2023-01-18T09:40:15.050Z,7.95
2023-01-18T09:42:46.053Z,4.90
2023-01-18T09:45:27.233Z,4.40
2023-01-18T09:48:06.738Z,5.05
2023-01-18T09:50:44.035Z,6.05
2023-01-18T09:53:25.030Z,4.93
2023-01-18T09:56:00.738Z,5.80
2023-01-18T09:58:43.499Z,4.47
2023-01-18T10:01:17.470Z,6.05
2023-01-18T10:03:53.617Z,4.32
2023-01-18T10:06:28.733Z,4.53
2023-01-18T10:09:04.596Z,5.85
2023-01-18T10:11:43.285Z,4.50
2023-01-18T10:14:20.458Z,4.00
2023-01-18T10:16:57.776Z,4.55
2023-01-18T10:19:29.633Z,4.90
2023-01-18T10:22:07.764Z,6.30
2023-01-18T10:24:45.396Z,4.43
2023-01-18T10:27:32.027Z,8.30
2023-01-18T10:30:15.834Z,6.00
2023-01-18T10:32:50.373Z,10.20
2023-01-18T10:35:27.778Z,7.05
2023-01-18T10:38:02.012Z,9.88
2023-01-18T10:40:34.951Z,5.90
2023-01-18T10:43:04.962Z,18.25
2023-01-18T10:45:36.531Z,6.13
2023-01-18T10:48:29.098Z,4.78
2023-01-18T10:51:00.668Z,6.13
2023-01-18T10:53:33.674Z,5.90
2023-01-18T10:56:06.281Z,4.65
2023-01-18T10:58:45.758Z,5.35
2023-01-18T11:01:22.474Z,14.23
2023-01-18T11:03:55.494Z,20.33
2023-01-18T11:06:26.429Z,8.93
2023-01-18T11:08:56.999Z,13.90
2023-01-18T11:11:46.204Z,13.30
2023-01-18T11:14:26.899Z,6.03
2023-01-18T11:17:13.174Z,6.13
2023-01-18T11:19:42.819Z,5.70
2023-01-18T11:22:14.343Z,8.38
2023-01-18T11:24:45.092Z,5.25
2023-01-18T11:27:17.083Z,6.60
2023-01-18T11:29:52.220Z,5.85
2023-01-18T11:32:25.245Z,6.55
2023-01-18T11:34:56.905Z,5.40
2023-01-18T11:37:34.664Z,5.85
2023-01-18T11:40:29.106Z,5.10
2023-01-18T11:43:03.792Z,5.50
2023-01-18T11:45:37.681Z,6.22
2023-01-18T11:48:14.155Z,8.77
2023-01-18T11:50:46.666Z,11.85
2023-01-18T11:53:26.584Z,13.93
2023-01-18T11:56:06.691Z,6.22
2023-01-18T11:58:37.679Z,5.70
2023-01-18T12:01:24.039Z,6.15
2023-01-18T12:04:00.661Z,5.18
2023-01-18T12:06:39.429Z,5.82
2023-01-18T12:09:26.931Z,6.00
2023-01-18T12:12:18.927Z,9.35
2023-01-18T12:15:03.486Z,24.23
2023-01-18T12:17:48.348Z,14.73
2023-01-18T12:20:26.185Z,10.00
2023-01-18T12:23:28.335Z,4.93
2023-01-18T12:26:12.551Z,8.52
2023-01-18T12:29:05.080Z,4.85
2023-01-18T12:31:48.731Z,5.00
2023-01-18T12:34:20.653Z,6.50
2023-01-18T12:37:15.601Z,5.80
2023-01-18T12:40:01.596Z,8.43
2023-01-18T12:42:46.058Z,8.18
2023-01-18T12:45:24.822Z,8.50
2023-01-18T12:48:02.281Z,3.90
2023-01-18T12:50:35.671Z,3.80
2023-01-18T12:53:12.232Z,2.90
2023-01-18T12:55:44.297Z,3.47
2023-01-18T12:58:20.605Z,3.83
2023-01-18T13:00:55.641Z,3.85
2023-01-18T13:03:29.659Z,3.65
2023-01-18T13:06:00.382Z,5.10
2023-01-18T13:08:40.374Z,4.05
2023-01-18T13:11:14.151Z,5.00
2023-01-18T13:13:45.602Z,5.03
2023-01-18T13:16:31.794Z,8.90
2023-01-18T13:19:05.638Z,7.22
2023-01-18T13:21:49.507Z,6.43
2023-01-18T13:24:31.903Z,5.95
2023-01-18T13:27:11.941Z,5.85
2023-01-18T13:29:42.003Z,7.05
2023-01-18T13:32:30.474Z,11.07
2023-01-18T13:35:18.961Z,6.55
2023-01-18T13:37:53.735Z,9.57
2023-01-18T13:40:27.984Z,7.35
2023-01-18T13:42:57.171Z,8.20
2023-01-18T13:45:28.394Z,4.97
2023-01-18T13:48:07.595Z,6.88
2023-01-18T13:50:47.396Z,11.75
2023-01-18T13:53:23.268Z,12.25
2023-01-18T13:56:31.197Z,5.95
2023-01-18T13:59:05.943Z,5.78
2023-01-18T14:01:38.165Z,5.55
2023-01-18T14:04:32.926Z,4.45
2023-01-18T14:07:06.060Z,5.93
2023-01-18T14:09:41.573Z,6.32
2023-01-18T14:12:11.759Z,7.63
2023-01-18T14:14:56.631Z,29.73
2023-01-18T14:17:27.072Z,11.75
2023-01-18T14:20:30.814Z,10.90
2023-01-18T14:23:25.374Z,6.70
2023-01-18T14:26:02.111Z,4.65
2023-01-18T14:28:37.195Z,4.45
2023-01-18T14:31:09.164Z,5.68
2023-01-18T14:33:41.455Z,3.78
2023-01-18T14:36:22.325Z,4.10
2023-01-18T14:39:12.988Z,4.28
2023-01-18T14:41:44.510Z,4.50
2023-01-18T14:44:19.764Z,5.20
2023-01-18T14:46:52.334Z,5.10
2023-01-18T14:49:26.168Z,5.35
2023-01-18T14:51:57.450Z,4.80
2023-01-18T14:54:27.191Z,5.22
2023-01-18T14:57:03.667Z,5.72
2023-01-18T14:59:36.086Z,6.15
2023-01-18T15:02:18.969Z,6.28
2023-01-18T15:04:49.643Z,5.07
2023-01-18T15:07:25.554Z,5.70
2023-01-18T15:09:54.900Z,5.25
2023-01-18T15:12:30.437Z,5.20
2023-01-18T15:15:06.496Z,6.03
2023-01-18T15:17:37.501Z,5.10
2023-01-18T15:20:14.451Z,5.53
2023-01-18T15:22:45.554Z,5.93
2023-01-18T15:25:22.883Z,5.88
2023-01-18T15:27:53.434Z,5.70
2023-01-18T15:30:25.429Z,5.35
2023-01-18T15:32:57.734Z,6.70
2023-01-18T15:37:59.030Z,5.00
2023-01-18T15:40:30.977Z,5.80
2023-01-18T15:43:05.915Z,6.35
2023-01-18T15:45:38.498Z,6.57
2023-01-18T15:48:17.506Z,5.72
2023-01-18T15:50:49.633Z,5.82
2023-01-18T15:53:31.128Z,6.78
2023-01-18T15:56:03.519Z,6.72
2023-01-18T16:02:19.867Z,7.38
2023-01-18T16:04:49.150Z,7.63
2023-01-18T16:07:39.098Z,6.45
2023-01-18T16:10:30.503Z,6.60
2023-01-18T16:13:24.337Z,8.85
2023-01-18T16:16:16.119Z,8.73
2023-01-18T16:18:47.805Z,8.85
2023-01-18T16:21:24.641Z,8.00
2023-01-18T16:24:06.478Z,9.15
2023-01-18T16:26:38.149Z,8.43
2023-01-18T16:29:09.475Z,9.25
2023-01-18T16:31:41.965Z,9.05
2023-01-18T16:34:36.223Z,9.13
2023-01-18T16:37:05.374Z,8.05
2023-01-18T16:39:39.165Z,8.02
2023-01-18T16:42:18.246Z,8.05
2023-01-18T16:44:49.280Z,8.75
2023-01-18T16:47:19.221Z,10.55
2023-01-18T16:49:48.575Z,8.30
2023-01-18T16:52:17.585Z,8.65
2023-01-18T16:54:47.517Z,11.60
2023-01-18T16:57:23.113Z,8.85
2023-01-18T16:59:52.568Z,9.35
2023-01-18T17:02:22.028Z,8.50
2023-01-18T17:04:51.077Z,9.73
2023-01-18T17:07:20.005Z,8.20
2023-01-18T17:09:49.683Z,9.98
2023-01-18T17:12:20.464Z,9.85
2023-01-18T17:14:49.526Z,8.55
2023-01-18T17:17:18.507Z,8.98
2023-01-18T17:19:47.502Z,10.20
2023-01-18T17:22:16.547Z,8.98
2023-01-18T17:24:46.647Z,9.35
2023-01-18T17:27:15.842Z,8.10
2023-01-18T17:29:47.208Z,6.97
2023-01-18T17:32:16.700Z,8.52
2023-01-18T17:34:45.734Z,8.25
2023-01-18T17:37:15.263Z,7.80
2023-01-18T17:40:02.231Z,8.52
2023-01-18T17:42:32.453Z,7.70
2023-01-18T17:45:06.705Z,8.77
2023-01-18T17:47:38.985Z,7.75
2023-01-18T17:50:09.706Z,8.88
2023-01-18T17:52:39.471Z,9.60
2023-01-18T17:55:11.542Z,7.60
2023-01-18T17:57:40.948Z,8.00
2023-01-18T18:00:14.674Z,8.30
2023-01-18T18:02:47.447Z,8.88
2023-01-18T18:05:16.655Z,9.90
2023-01-18T18:07:46.060Z,8.30
2023-01-18T18:10:16.407Z,10.23
2023-01-18T18:12:45.409Z,10.13
2023-01-18T18:15:15.931Z,9.43
2023-01-18T18:17:44.977Z,9.55
2023-01-18T18:20:14.828Z,9.60
2023-01-18T18:22:44.044Z,8.55
2023-01-18T18:25:13.883Z,8.45
2023-01-18T18:27:47.194Z,9.02
2023-01-18T18:30:18.765Z,9.70
2023-01-18T18:32:47.737Z,9.77
2023-01-18T18:35:25.475Z,9.55
2023-01-18T18:37:55.685Z,9.80
2023-01-18T18:40:25.191Z,10.43
2023-01-18T18:43:01.714Z,10.38
2023-01-18T18:45:33.475Z,8.77
2023-01-18T18:48:02.838Z,11.00
2023-01-18T18:50:32.775Z,10.07
2023-01-18T18:53:02.165Z,10.52
2023-01-18T18:55:31.385Z,10.20
2023-01-18T18:58:00.548Z,8.50
2023-01-18T19:00:29.571Z,10.35
2023-01-18T19:03:06.167Z,17.35
2023-01-18T19:05:37.256Z,11.52
2023-01-18T19:08:06.585Z,10.70
2023-01-18T19:10:35.654Z,11.13
2023-01-18T19:13:04.964Z,10.63
2023-01-18T19:15:34.273Z,10.57
2023-01-18T19:18:04.719Z,10.82
2023-01-18T19:20:33.753Z,11.57
2023-01-18T19:23:03.315Z,10.52
2023-01-18T19:25:33.461Z,13.43
2023-01-18T19:28:03.011Z,10.68
2023-01-18T19:30:33.361Z,12.10
2023-01-18T19:33:04.155Z,11.68
2023-01-18T19:35:34.431Z,12.25
2023-01-18T19:38:03.362Z,11.82
2023-01-18T19:40:32.379Z,12.05
2023-01-18T19:43:01.902Z,12.65
2023-01-18T19:45:32.449Z,11.90
2023-01-18T19:48:03.804Z,13.95
2023-01-18T19:50:33.156Z,11.52
2023-01-18T19:53:03.653Z,13.73
2023-01-18T19:55:33.205Z,12.30
2023-01-18T19:58:02.868Z,17.15
2023-01-18T20:00:32.075Z,12.30
2023-01-18T20:03:52.523Z,11.70
2023-01-18T20:06:23.791Z,12.57
2023-01-18T20:08:54.114Z,12.77
2023-01-18T20:11:23.157Z,12.30
2023-01-18T20:13:53.675Z,10.82
2023-01-18T20:16:23.023Z,15.18
2023-01-18T20:18:52.972Z,11.63
2023-01-18T20:21:23.534Z,14.10
2023-01-18T20:23:52.486Z,13.13
2023-01-18T20:26:34.873Z,12.70
2023-01-18T20:29:07.066Z,13.82
2023-01-18T20:31:36.732Z,14.40
2023-01-18T20:34:06.602Z,13.27
2023-01-18T20:36:37.632Z,13.32
2023-01-18T20:39:07.023Z,13.57
2023-01-18T20:41:36.181Z,13.73
2023-01-18T20:44:05.237Z,14.52
2023-01-18T20:46:34.313Z,14.88
2023-01-18T20:49:04.026Z,15.77
2023-01-18T20:51:33.734Z,12.95
2023-01-18T20:54:05.111Z,13.80
2023-01-18T20:56:34.525Z,15.02
2023-01-18T20:59:03.598Z,15.57
2023-01-18T21:01:33.159Z,12.45
2023-01-18T21:04:04.005Z,12.57
2023-01-18T21:06:33.961Z,12.23
2023-01-18T21:09:04.847Z,14.02
2023-01-18T21:11:33.983Z,13.60
2023-01-18T21:14:04.165Z,14.13
2023-01-18T21:16:33.279Z,12.98
2023-01-18T21:19:02.271Z,12.65
2023-01-18T21:21:32.043Z,13.30
2023-01-18T21:24:04.558Z,12.98
2023-01-18T21:26:33.604Z,12.38
2023-01-18T21:29:02.591Z,13.23
2023-01-18T21:31:31.626Z,12.15
2023-01-18T21:34:00.603Z,15.15
2023-01-18T21:36:29.706Z,14.80
2023-01-18T21:38:58.814Z,12.80
2023-01-18T21:41:46.981Z,13.48
2023-01-18T21:44:33.327Z,13.60
2023-01-18T21:47:03.256Z,13.10
2023-01-18T21:50:15.963Z,15.52
2023-01-18T21:52:57.502Z,13.73
2023-01-18T21:55:26.534Z,15.40
2023-01-18T21:58:14.532Z,14.52
2023-01-18T22:00:43.521Z,13.13
2023-01-18T22:03:13.297Z,13.82
2023-01-18T22:05:42.323Z,13.57
2023-01-18T22:08:11.294Z,13.43
2023-01-18T22:10:40.328Z,14.13
2023-01-18T22:13:10.615Z,11.98
2023-01-18T22:15:39.584Z,13.52
2023-01-18T22:18:08.645Z,13.85
2023-01-18T22:20:41.635Z,13.32
2023-01-18T22:23:10.946Z,12.43
2023-01-18T22:25:39.906Z,12.55
2023-01-18T22:28:10.989Z,12.15
2023-01-18T22:30:40.648Z,11.27
2023-01-18T22:33:09.672Z,11.98
2023-01-18T22:35:39.119Z,11.18
2023-01-18T22:38:09.807Z,11.40
2023-01-18T22:40:38.708Z,10.10
2023-01-18T22:43:09.201Z,10.38
2023-01-18T22:45:38.377Z,12.80
2023-01-18T22:48:08.158Z,13.27
2023-01-18T22:50:37.223Z,11.82
2023-01-18T22:53:06.200Z,13.15
2023-01-18T22:55:35.280Z,11.65
2023-01-18T22:58:04.287Z,11.40
2023-01-18T23:00:34.686Z,13.55
2023-01-18T23:03:07.910Z,10.75
2023-01-18T23:05:36.976Z,11.55
2023-01-18T23:08:06.316Z,13.32
2023-01-18T23:10:36.086Z,11.07
2023-01-18T23:13:05.135Z,12.43
2023-01-18T23:15:53.187Z,10.32
2023-01-18T23:18:22.210Z,9.73
2023-01-18T23:20:56.970Z,10.38
2023-01-18T23:23:25.993Z,10.25
2023-01-18T23:25:58.392Z,11.05
2023-01-18T23:28:41.165Z,8.95
2023-01-18T23:31:12.543Z,9.63
2023-01-18T23:33:43.369Z,9.32
2023-01-18T23:36:15.461Z,9.60
2023-01-18T23:39:01.889Z,9.00
2023-01-18T23:41:48.323Z,9.98
2023-01-18T23:44:34.601Z,11.65
2023-01-18T23:47:22.689Z,9.98
2023-01-18T23:50:09.251Z,9.85
2023-01-18T23:52:55.898Z,10.52
2023-01-18T23:55:24.959Z,12.70
2023-01-18T23:57:53.973Z,7.95
